Date,TemperatureHighF,TemperatureAvgF,TemperatureLowF,DewpointHighF,DewpointAvgF,DewpointLowF,HumidityHigh,HumidityAvg,HumidityLow,PressureMaxIn,PressureMinIn,WindSpeedMaxMPH,WindSpeedAvgMPH,GustSpeedMaxMPH,PrecipitationSumIn
2013-6-1,86,82,80,80,78,77,92,88,80,29.87,29.77,17,12,24,0.00
2013-6-2,86,81,74,80,76,-100,96,86,74,29.99,29.83,23,6,26,0.02
2013-6-3,84,72,73,76,54,-100,100,75,70,29.92,29.80,9,6,15,0.00
2013-6-4,86,79,78,83,68,-100,100,75,65,29.87,29.79,11,5,16,0.00
2013-6-5,87,83,79,78,76,75,89,81,71,29.83,29.75,11,6,18,0.00
2013-6-6,87,83,76,79,77,74,94,84,76,29.83,29.71,10,5,15,0.00
2013-6-7,85,79,70,79,74,69,97,85,71,29.90,29.80,24,9,37,0.03
2013-6-8,87,80,72,79,76,70,95,85,64,29.88,29.76,15,6,19,0.03
2013-6-9,89,58,82,80,21,-100,91,56,72,29.90,29.78,16,9,22,0.00
2013-6-10,87,71,81,80,38,-100,100,67,73,29.94,29.88,13,7,17,0.00
2013-6-11,88,84,81,80,78,75,88,83,76,30.00,29.91,13,8,19,0.00
2013-6-12,87,83,76,80,78,73,95,86,76,30.01,29.94,12,8,20,0.25
2013-6-15,83,83,83,79,79,78,88,86,85,29.93,29.91,11,8,18,0.00
2013-6-16,88,84,82,81,79,77,89,84,77,29.98,29.90,14,9,21,0.00
2013-6-17,89,83,82,81,76,-100,91,83,75,29.95,29.84,14,9,21,0.00
2013-6-18,88,80,81,80,68,-100,89,78,74,29.95,29.84,14,8,21,0.00
2013-6-19,88,84,81,79,78,77,89,82,70,29.97,29.88,14,9,22,0.00
2013-6-20,87,81,81,80,70,-100,90,81,76,30.02,29.91,13,9,22,0.00
2013-6-21,87,65,81,80,38,-100,91,66,76,30.05,29.97,12,8,17,0.00
2013-6-22,89,60,81,79,25,-100,91,59,69,30.01,29.90,12,8,21,0.00
2013-6-23,87,48,82,79,0,-100,89,46,73,29.97,29.88,14,9,22,0.00
2013-6-24,86,84,81,80,79,78,91,85,78,30.00,29.91,16,10,24,0.00
2013-6-25,86,79,80,80,70,-100,92,82,79,29.99,29.88,17,-36,25,0.00
2013-6-26,87,76,80,81,64,-100,92,80,78,29.95,29.88,15,-5,21,0.00
2013-6-27,87,83,80,79,77,-100,91,84,74,29.98,29.90,12,8,18,0.00
2013-6-28,89,72,80,80,53,-100,91,71,71,29.96,29.81,12,8,19,0.00
2013-6-29,91,80,79,81,68,-100,92,76,67,29.84,29.69,13,8,23,0.00
2013-6-30,89,80,69,78,73,68,98,80,58,29.89,29.73,33,6,43,0.48